Time;durP1;ratioP1;P1;durP2;ratioP2;P2;SDS_P1;SDS_P2;PMS_P1;PMS_P2;Temp;Humidity;BMP_temperature;BMP_pressure;BME280_temperature;BME280_humidity;BME280_pressure;Samples;Min_cycle;Max_cycle;Signal;HPM_P1;HPM_P2
2023/12/09 00:01:52;;;;;;;;;52.25;39.25;;;;;8.08;85.02;100909.06;5015751;28;45587;-71
2023/12/09 00:04:21;;;;;;;;;46.00;37.50;;;;;7.97;84.68;100890.69;5022363;28;45470;-71
2023/12/09 00:06:49;;;;;;;;;45.25;34.50;;;;;7.91;84.97;100872.31;5026153;28;45449;-70
2023/12/09 00:09:18;;;;;;;;;46.00;36.75;;;;;8.12;85.00;100910.00;5019850;28;45803;-69
2023/12/09 00:11:44;;;;;;;;;42.25;33.50;;;;;7.82;84.91;100843.47;5020178;28;45496;-68
2023/12/09 00:14:09;;;;;;;;;36.75;29.50;;;;;8.05;85.48;100891.66;5017606;28;45482;-69
2023/12/09 00:16:35;;;;;;;;;41.25;32.25;;;;;7.55;85.58;100818.75;5036839;28;45453;-69
2023/12/09 00:19:02;;;;;;;;;45.75;32.50;;;;;7.96;85.95;100894.13;5033260;28;45605;-71
2023/12/09 00:21:31;;;;;;;;;25.00;24.50;;;;;7.96;86.00;100894.13;5035648;28;45433;-69
2023/12/09 00:23:59;;;;;;;;;24.75;20.50;;;;;7.90;86.34;100882.72;5029455;28;45378;-69
2023/12/09 00:26:31;;;;;;;;;21.25;19.50;;;;;7.79;86.44;100861.69;5023441;28;45634;-69
2023/12/09 00:28:57;;;;;;;;;21.25;15.75;;;;;7.37;86.30;100798.47;5019109;28;45807;-69
2023/12/09 00:31:24;;;;;;;;;18.25;13.00;;;;;7.83;86.37;100882.63;5020511;28;45904;-70
2023/12/09 00:33:49;;;;;;;;;12.50;9.25;;;;;7.88;86.38;100887.91;5028848;28;45911;-69
2023/12/09 00:39:40;;;;;;;;;17.25;14.75;;;;;7.48;86.72;100844.69;5025380;28;45410;-69
2023/12/09 00:42:06;;;;;;;;;19.50;15.75;;;;;7.37;86.36;100821.94;5016319;28;45501;-70
2023/12/09 00:44:32;;;;;;;;;17.50;14.25;;;;;7.68;86.04;100869.34;5034573;28;45565;-70
2023/12/09 00:47:01;;;;;;;;;22.50;15.75;;;;;7.81;86.63;100913.03;5036691;28;45562;-69
2023/12/09 00:49:27;;;;;;;;;17.00;13.75;;;;;7.55;86.58;100857.84;5026136;28;46595;-70
2023/12/09 00:51:52;;;;;;;;;24.25;16.00;;;;;7.83;86.37;100908.72;5022285;28;45323;-69
2023/12/09 00:54:18;;;;;;;;;19.00;15.75;;;;;7.74;86.37;100886.81;5023667;28;45470;-69
2023/12/09 00:56:43;;;;;;;;;15.50;12.00;;;;;7.63;86.89;100878.81;5025756;28;45488;-70
2023/12/09 00:59:09;;;;;;;;;17.00;15.00;;;;;7.67;86.76;100884.97;5036674;28;45928;-68
2023/12/09 01:01:45;;;;;;;;;18.50;16.50;;;;;7.73;86.61;100901.56;5034326;28;45422;-70
2023/12/09 01:04:17;;;;;;;;;20.25;15.75;;;;;7.72;86.63;100893.75;5028337;28;45451;-71
2023/12/09 01:06:43;;;;;;;;;17.00;14.50;;;;;7.65;86.56;100879.72;5037456;28;45540;-71
2023/12/09 01:09:09;;;;;;;;;19.00;14.75;;;;;7.69;86.37;100883.25;5039005;28;45509;-71
2023/12/09 01:11:50;;;;;;;;;19.50;15.25;;;;;7.29;86.79;100820.94;5024478;28;45864;-70
2023/12/09 01:14:16;;;;;;;;;19.25;15.00;;;;;7.54;86.39;100861.28;5019406;28;45469;-69
2023/12/09 01:17:07;;;;;;;;;16.00;13.75;;;;;7.61;86.76;100898.75;5021532;28;45415;-69
2023/12/09 01:19:33;;;;;;;;;15.00;11.50;;;;;7.22;86.54;100832.09;5022675;28;45354;-71
2023/12/09 01:21:58;;;;;;;;;19.25;11.50;;;;;7.63;86.59;100900.53;5028074;28;45284;-69
2023/12/09 01:24:35;;;;;;;;;16.50;13.25;;;;;7.63;86.81;100902.28;5028948;28;45498;-69
2023/12/09 01:27:09;;;;;;;;;19.25;14.50;;;;;7.62;86.74;100901.41;5030719;28;45682;-68
2023/12/09 01:29:38;;;;;;;;;19.00;14.25;;;;;7.61;86.62;100904.84;5031297;28;46041;-68
2023/12/09 01:32:04;;;;;;;;;16.00;14.50;;;;;7.63;87.06;100897.94;5032865;28;45526;-70
2023/12/09 01:34:30;;;;;;;;;19.00;15.50;;;;;7.65;86.64;100883.19;5035620;28;45379;-70
2023/12/09 01:36:56;;;;;;;;;18.75;15.00;;;;;7.30;86.82;100833.09;5038586;28;45340;-68
2023/12/09 01:39:22;;;;;;;;;18.25;13.75;;;;;7.61;87.11;100891.81;5051002;28;46670;-69
2023/12/09 01:41:48;;;;;;;;;24.50;16.75;;;;;7.32;86.86;100838.34;5034407;28;45502;-68
2023/12/09 01:44:14;;;;;;;;;15.50;14.75;;;;;7.53;86.63;100867.38;5036792;28;45478;-69
2023/12/09 01:46:41;;;;;;;;;14.00;12.25;;;;;7.61;87.07;100899.63;5038252;28;45385;-69
2023/12/09 01:49:07;;;;;;;;;17.75;12.50;;;;;7.60;86.97;100887.47;5036383;28;47902;-69
2023/12/09 01:51:34;;;;;;;;;18.00;15.00;;;;;7.32;87.12;100820.97;5037857;28;45480;-69
2023/12/09 01:54:01;;;;;;;;;18.50;14.50;;;;;7.30;87.13;100811.38;5036453;28;45498;-71
2023/12/09 01:56:30;;;;;;;;;26.25;16.00;;;;;7.64;87.54;100868.44;5037950;28;45373;-69
2023/12/09 01:58:56;;;;;;;;;15.50;7.75;;;;;7.43;87.26;100826.38;5037272;28;45923;-70
2023/12/09 02:01:23;;;;;;;;;16.25;14.00;;;;;7.37;87.13;100806.28;5035733;28;45512;-69
2023/12/09 02:03:50;;;;;;;;;16.75;16.75;;;;;7.50;87.19;100836.06;5026355;28;45408;-69
2023/12/09 02:06:16;;;;;;;;;16.00;13.50;;;;;6.77;87.28;100714.16;5038637;28;45419;-70
2023/12/09 02:08:42;;;;;;;;;19.50;14.50;;;;;6.89;87.12;100721.28;5036402;28;46950;-69
2023/12/09 02:11:07;;;;;;;;;26.25;15.75;;;;;7.70;87.14;100849.38;5038813;28;45415;-69
2023/12/09 02:13:51;;;;;;;;;22.75;14.75;;;;;7.63;86.79;100824.94;5038999;28;45445;-69
2023/12/09 02:16:25;;;;;;;;;25.25;15.75;;;;;7.65;87.45;100827.59;5040043;28;45509;-69
2023/12/09 02:18:54;;;;;;;;;18.75;14.00;;;;;7.27;86.92;100759.25;5038598;28;45430;-68
2023/12/09 02:21:20;;;;;;;;;23.75;17.25;;;;;7.32;87.32;100768.00;5037855;28;45427;-70
2023/12/09 02:23:45;;;;;;;;;27.75;18.00;;;;;7.50;87.27;100788.25;5037821;28;45528;-68
2023/12/09 02:26:20;;;;;;;;;24.00;17.25;;;;;7.63;87.07;100805.84;5038146;28;45694;-68
2023/12/09 02:28:59;;;;;;;;;20.00;17.00;;;;;7.68;87.41;100809.38;5027742;28;46105;-69
2023/12/09 02:31:31;;;;;;;;;27.75;19.00;;;;;7.65;87.51;100793.69;5037804;28;45489;-69
2023/12/09 02:34:01;;;;;;;;;19.50;16.25;;;;;7.64;87.46;100781.53;5054500;28;45474;-69
2023/12/09 02:36:35;;;;;;;;;27.00;19.25;;;;;7.58;87.76;100769.25;5053964;28;45502;-68
2023/12/09 02:39:03;;;;;;;;;20.75;17.75;;;;;7.65;87.69;100783.28;5035794;28;45988;-69
2023/12/09 02:41:31;;;;;;;;;19.75;15.75;;;;;7.51;87.92;100764.81;5037272;28;45379;-69
2023/12/09 02:43:58;;;;;;;;;26.50;17.75;;;;;7.33;87.96;100721.13;5050224;28;45914;-69
2023/12/09 02:46:24;;;;;;;;;19.75;17.25;;;;;7.55;88.04;100766.63;5021580;28;45884;-69
2023/12/09 02:48:50;;;;;;;;;21.25;15.50;;;;;7.48;88.05;100746.53;5022354;28;47684;-68
2023/12/09 02:51:15;;;;;;;;;23.75;21.50;;;;;7.49;88.56;100750.88;5032755;28;45470;-69
2023/12/09 02:53:44;;;;;;;;;21.50;20.75;;;;;7.38;88.41;100718.56;5029705;28;45567;-69
2023/12/09 02:56:10;;;;;;;;;20.00;17.00;;;;;7.55;88.24;100744.91;5034512;28;45401;-69
2023/12/09 02:58:36;;;;;;;;;20.75;16.75;;;;;7.73;88.83;100768.59;5034589;28;45453;-69
2023/12/09 03:01:02;;;;;;;;;20.00;15.75;;;;;7.75;88.21;100773.84;5037077;28;45479;-69
2023/12/09 03:03:46;;;;;;;;;25.50;14.50;;;;;7.77;88.31;100759.09;5031978;28;45507;-69
2023/12/09 03:06:18;;;;;;;;;21.50;17.50;;;;;7.28;87.87;100677.63;5034708;28;45449;-69
2023/12/09 03:09:03;;;;;;;;;21.75;18.25;;;;;7.80;88.39;100746.09;5039332;28;45475;-69
2023/12/09 03:11:29;;;;;;;;;17.50;12.75;;;;;7.42;88.22;100670.88;5038383;28;45401;-68
2023/12/09 03:14:05;;;;;;;;;22.25;18.75;;;;;7.85;88.30;100734.00;5037581;28;45409;-70
2023/12/09 03:16:31;;;;;;;;;19.50;17.25;;;;;7.14;88.38;100620.09;5038173;28;45656;-69
2023/12/09 03:19:00;;;;;;;;;17.25;14.50;;;;;7.84;88.45;100717.47;5037314;28;45559;-68
2023/12/09 03:21:33;;;;;;;;;20.75;16.00;;;;;7.82;88.22;100693.13;5036836;28;45402;-70
2023/12/09 03:24:09;;;;;;;;;22.50;16.50;;;;;7.55;88.63;100653.69;5037101;28;45485;-69
2023/12/09 03:26:35;;;;;;;;;20.00;18.50;;;;;7.70;88.76;100684.28;5035949;28;45642;-68
2023/12/09 03:29:01;;;;;;;;;15.50;12.00;;;;;7.67;88.83;100666.88;5036756;28;45397;-68
2023/12/09 03:31:28;;;;;;;;;23.50;17.00;;;;;7.47;88.87;100622.28;5036679;28;45490;-69
2023/12/09 03:34:09;;;;;;;;;23.75;15.00;;;;;7.90;88.77;100685.41;5035824;28;45375;-68
2023/12/09 03:36:42;;;;;;;;;17.50;14.25;;;;;7.91;88.78;100674.09;5031217;28;45478;-68
2023/12/09 03:39:41;;;;;;;;;15.75;14.50;;;;;7.84;88.97;100675.75;5029453;28;45526;-69
2023/12/09 03:42:40;;;;;;;;;26.25;18.50;;;;;7.91;88.85;100679.31;5035770;28;46102;-69
2023/12/09 03:45:08;;;;;;;;;21.00;14.25;;;;;7.90;89.13;100669.75;5025425;28;45382;-69
2023/12/09 03:47:38;;;;;;;;;19.00;13.50;;;;;7.94;89.06;100660.22;5036753;28;45536;-69
2023/12/09 03:50:13;;;;;;;;;15.00;13.25;;;;;7.99;88.90;100658.53;5036621;28;46413;-68
2023/12/09 03:52:41;;;;;;;;;15.75;12.00;;;;;7.99;88.84;100662.03;5035265;28;45524;-68
2023/12/09 03:55:07;;;;;;;;;12.50;11.00;;;;;7.68;88.61;100593.00;5036684;28;45847;-68
2023/12/09 03:57:34;;;;;;;;;15.50;13.50;;;;;7.98;88.82;100641.16;5035347;28;45467;-68
2023/12/09 04:00:33;;;;;;;;;18.75;13.75;;;;;8.01;88.85;100649.00;5036154;28;45844;-68
2023/12/09 04:02:59;;;;;;;;;18.00;14.50;;;;;8.04;89.06;100644.72;5036935;28;45488;-69
2023/12/09 04:05:35;;;;;;;;;25.00;16.25;;;;;7.91;88.67;100615.88;5037004;28;45448;-69
2023/12/09 04:08:01;;;;;;;;;16.25;10.50;;;;;8.06;88.69;100634.28;5036716;28;45426;-68
2023/12/09 04:10:27;;;;;;;;;15.00;12.75;;;;;8.03;88.65;100623.81;5036792;28;45507;-69
2023/12/09 04:12:53;;;;;;;;;21.75;13.50;;;;;8.05;88.85;100622.97;5038195;28;45453;-69
2023/12/09 04:15:18;;;;;;;;;17.75;13.00;;;;;8.00;88.87;100609.00;5038013;28;45381;-68
2023/12/09 04:17:44;;;;;;;;;20.25;14.25;;;;;7.90;89.09;100588.91;5039317;28;45388;-67
2023/12/09 04:20:10;;;;;;;;;16.50;11.75;;;;;8.03;89.25;100597.72;5036422;28;45805;-68
2023/12/09 04:22:38;;;;;;;;;16.50;11.75;;;;;7.90;89.39;100578.50;5040230;28;45796;-69
2023/12/09 04:25:04;;;;;;;;;19.00;12.25;;;;;8.07;89.26;100599.53;5041155;28;45284;-69
2023/12/09 04:27:34;;;;;;;;;10.00;9.25;;;;;7.99;88.88;100582.91;5037087;28;45496;-69
2023/12/09 04:30:04;;;;;;;;;11.75;11.00;;;;;7.99;88.98;100580.28;5030594;28;46456;-69
2023/12/09 04:32:30;;;;;;;;;15.25;12.25;;;;;8.11;89.07;100595.19;5039527;28;45272;-69
2023/12/09 04:34:57;;;;;;;;;15.00;11.50;;;;;8.09;89.19;100597.78;5039925;28;45347;-69
2023/12/09 04:37:23;;;;;;;;;19.00;10.25;;;;;7.99;89.29;100577.69;5038743;28;45529;-70
2023/12/09 04:39:49;;;;;;;;;14.00;10.25;;;;;7.92;89.46;100565.44;5039094;28;45521;-69
2023/12/09 04:42:14;;;;;;;;;13.75;10.00;;;;;8.02;89.41;100583.81;5040857;28;45421;-69
2023/12/09 04:44:40;;;;;;;;;13.75;9.75;;;;;8.08;89.83;100596.91;5040817;28;45577;-69
2023/12/09 04:47:06;;;;;;;;;14.25;10.50;;;;;7.88;89.56;100548.00;5038331;28;45521;-70
2023/12/09 04:49:32;;;;;;;;;14.75;10.00;;;;;7.61;89.34;100495.59;5038931;28;46091;-69
2023/12/09 04:51:59;;;;;;;;;15.50;12.00;;;;;7.97;89.27;100546.41;5040409;28;45382;-69
2023/12/09 04:54:24;;;;;;;;;21.00;12.50;;;;;8.11;89.43;100575.19;5040461;28;45501;-68
2023/12/09 04:56:50;;;;;;;;;12.50;11.00;;;;;8.05;89.22;100543.84;5038540;28;45509;-68
2023/12/09 04:59:16;;;;;;;;;8.75;7.00;;;;;7.75;89.48;100500.09;5038814;28;45380;-68
2023/12/09 05:01:41;;;;;;;;;11.00;10.00;;;;;7.97;89.17;100548.09;5038621;28;45465;-69
2023/12/09 05:04:08;;;;;;;;;12.00;10.50;;;;;8.02;89.74;100552.53;5038205;28;45584;-69
2023/12/09 05:06:34;;;;;;;;;14.25;8.75;;;;;8.04;89.46;100534.25;5038689;28;45430;-69
2023/12/09 05:09:00;;;;;;;;;13.00;10.25;;;;;7.92;89.02;100508.94;5038866;28;45622;-68
2023/12/09 05:11:25;;;;;;;;;12.50;10.00;;;;;8.26;89.54;100553.59;5039200;28;45313;-69
2023/12/09 05:13:51;;;;;;;;;12.00;9.00;;;;;8.24;89.23;100537.06;5037303;28;45567;-69
2023/12/09 05:16:16;;;;;;;;;13.00;10.25;;;;;8.25;89.49;100529.22;5039251;28;45271;-68
2023/12/09 05:18:42;;;;;;;;;12.50;9.00;;;;;7.94;89.75;100483.75;5018652;28;45819;-69
2023/12/09 05:21:07;;;;;;;;;11.75;8.25;;;;;8.22;89.24;100528.34;5040364;28;45300;-69
2023/12/09 05:23:33;;;;;;;;;6.50;6.50;;;;;8.19;89.37;100497.03;5039528;28;45520;-67
2023/12/09 05:25:59;;;;;;;;;11.25;6.50;;;;;8.25;89.67;100510.09;5039208;28;45458;-69
2023/12/09 05:28:25;;;;;;;;;7.50;7.50;;;;;8.28;89.79;100511.00;5028320;28;45948;-69
2023/12/09 05:30:50;;;;;;;;;10.75;7.75;;;;;8.24;89.56;100504.00;5036088;28;45414;-68
2023/12/09 05:33:16;;;;;;;;;12.00;7.75;;;;;8.32;89.61;100506.66;5037545;28;45359;-69
2023/12/09 05:35:41;;;;;;;;;10.00;8.75;;;;;8.18;90.03;100471.78;5038524;28;45462;-68
2023/12/09 05:38:07;;;;;;;;;9.25;7.75;;;;;8.32;90.35;100488.41;5038375;28;48136;-69
2023/12/09 05:40:32;;;;;;;;;9.50;6.00;;;;;8.33;90.37;100473.63;5039506;28;45359;-69
2023/12/09 05:42:58;;;;;;;;;8.25;6.50;;;;;8.35;90.18;100477.13;5038488;28;45548;-68
2023/12/09 05:45:24;;;;;;;;;10.00;7.50;;;;;8.06;90.36;100425.59;5038759;28;45407;-69
2023/12/09 05:47:50;;;;;;;;;9.25;7.00;;;;;8.15;90.28;100423.06;5037781;28;48207;-69
2023/12/09 05:50:16;;;;;;;;;11.75;4.50;;;;;8.31;90.51;100452.75;5039510;28;45519;-69
2023/12/09 05:52:42;;;;;;;;;9.75;6.00;;;;;8.34;90.80;100447.53;5039570;28;45311;-69
2023/12/09 05:55:07;;;;;;;;;12.25;6.25;;;;;8.35;91.37;100449.31;5040068;28;45264;-70
2023/12/09 05:57:33;;;;;;;;;7.25;5.25;;;;;8.33;91.27;100435.38;5038046;28;46277;-69
2023/12/09 05:59:58;;;;;;;;;7.25;5.25;;;;;8.37;91.01;100431.03;5039280;28;45415;-68
2023/12/09 06:02:24;;;;;;;;;8.25;6.00;;;;;8.37;91.25;100423.19;5038275;28;45248;-69
2023/12/09 06:04:50;;;;;;;;;7.25;4.00;;;;;8.38;91.25;100420.59;5038842;28;45331;-68
2023/12/09 06:07:15;;;;;;;;;8.25;6.25;;;;;8.42;91.18;100414.59;5039321;28;45228;-69
2023/12/09 06:09:41;;;;;;;;;10.75;6.25;;;;;8.45;91.11;100418.94;5039846;28;45414;-68
2023/12/09 06:12:07;;;;;;;;;10.50;8.75;;;;;8.45;91.09;100404.16;5039979;28;45485;-67
2023/12/09 06:14:32;;;;;;;;;8.50;8.00;;;;;8.43;91.18;100399.78;5038418;28;45507;-69
2023/12/09 06:16:58;;;;;;;;;8.00;7.00;;;;;8.44;91.29;100398.91;5037833;28;45638;-69
2023/12/09 06:19:23;;;;;;;;;10.25;4.50;;;;;8.44;91.92;100402.38;5037907;28;45457;-69
2023/12/09 06:21:49;;;;;;;;;7.25;5.00;;;;;8.46;91.63;100392.84;5037922;28;45621;-69
2023/12/09 06:24:14;;;;;;;;;7.50;4.75;;;;;8.53;91.57;100390.28;5037547;28;45359;-68
2023/12/09 06:26:47;;;;;;;;;5.25;4.50;;;;;8.48;91.88;100369.38;5028103;28;45366;-69
2023/12/09 06:29:16;;;;;;;;;13.50;5.25;;;;;8.55;91.78;100367.66;5022830;28;45433;-67
2023/12/09 06:31:41;;;;;;;;;10.00;4.25;;;;;8.55;91.73;100363.31;5028052;28;45319;-69
2023/12/09 06:34:07;;;;;;;;;5.50;5.25;;;;;8.51;91.65;100342.41;5037747;28;45533;-67
2023/12/09 06:36:32;;;;;;;;;10.75;4.50;;;;;8.56;91.96;100340.69;5036422;28;48038;-69
2023/12/09 06:38:58;;;;;;;;;5.25;4.50;;;;;8.66;91.53;100345.06;5037029;28;45632;-68
2023/12/09 06:41:23;;;;;;;;;4.50;4.00;;;;;8.64;92.09;100341.59;5038111;28;45473;-68
2023/12/09 06:43:49;;;;;;;;;3.75;1.50;;;;;8.66;91.88;100338.13;5038465;28;45476;-70
2023/12/09 06:46:15;;;;;;;;;8.75;5.75;;;;;8.66;91.83;100324.16;5036134;28;47057;-70
2023/12/09 06:48:41;;;;;;;;;7.00;5.00;;;;;8.61;92.65;100310.22;5037068;28;45266;-69
2023/12/09 06:51:14;;;;;;;;;5.25;3.50;;;;;8.46;92.93;100285.81;5037148;28;45590;-68
2023/12/09 06:53:43;;;;;;;;;4.75;3.00;;;;;8.10;92.81;100212.63;5033382;28;45887;-68
2023/12/09 06:56:18;;;;;;;;;4.75;4.00;;;;;8.64;92.48;100292.00;5036965;28;45762;-69
2023/12/09 06:58:45;;;;;;;;;4.25;3.00;;;;;8.67;92.42;100294.59;5036670;28;45693;-68
2023/12/09 07:01:25;;;;;;;;;4.00;3.50;;;;;8.75;92.48;100307.66;5038579;28;45442;-68
2023/12/09 07:03:51;;;;;;;;;5.75;4.00;;;;;7.96;92.31;100173.44;5037942;28;45492;-68
2023/12/09 07:06:27;;;;;;;;;6.00;3.75;;;;;8.61;92.71;100287.63;5036582;28;46157;-68
2023/12/09 07:08:53;;;;;;;;;6.25;3.00;;;;;8.46;92.71;100253.66;5036298;28;45508;-68
2023/12/09 07:11:23;;;;;;;;;5.50;4.25;;;;;8.75;93.59;100279.81;5038429;28;45315;-67
2023/12/09 07:13:50;;;;;;;;;8.00;4.25;;;;;8.73;92.94;100270.22;5038635;28;45444;-69
2023/12/09 07:16:15;;;;;;;;;5.75;3.25;;;;;8.77;92.94;100265.03;5037406;28;46792;-69
2023/12/09 07:18:46;;;;;;;;;7.00;4.00;;;;;8.62;93.14;100228.47;5036443;28;45580;-67
2023/12/09 07:21:15;;;;;;;;;7.75;5.00;;;;;8.50;93.29;100211.03;5038252;28;45558;-68
2023/12/09 07:23:41;;;;;;;;;2.75;2.75;;;;;8.72;93.88;100245.88;5026916;28;45514;-69
2023/12/09 07:26:07;;;;;;;;;5.75;3.50;;;;;8.74;93.69;100236.31;5036001;28;46381;-70
2023/12/09 07:28:33;;;;;;;;;5.00;2.50;;;;;8.76;94.01;100244.16;5025545;28;45410;-68
2023/12/09 07:30:59;;;;;;;;;4.00;4.00;;;;;8.64;94.16;100224.13;5035785;28;45365;-68
2023/12/09 07:33:25;;;;;;;;;5.75;3.00;;;;;8.67;94.83;100232.81;5036970;28;45276;-69
2023/12/09 07:35:54;;;;;;;;;4.25;1.50;;;;;8.61;94.79;100226.69;5035208;28;45828;-68
2023/12/09 07:38:20;;;;;;;;;3.25;3.25;;;;;8.74;94.55;100243.28;5037323;28;45304;-68
2023/12/09 07:40:51;;;;;;;;;8.75;2.00;;;;;8.63;94.65;100231.06;5036688;28;45345;-69
2023/12/09 07:43:16;;;;;;;;;5.25;3.00;;;;;8.79;94.77;100250.22;5035249;28;45359;-71
2023/12/09 07:45:42;;;;;;;;;6.75;3.00;;;;;8.70;94.61;100218.88;5034862;28;46477;-68
2023/12/09 07:48:07;;;;;;;;;8.50;3.00;;;;;8.81;94.58;100219.78;5036800;28;45293;-68
2023/12/09 07:50:34;;;;;;;;;4.75;3.00;;;;;7.98;95.13;100070.88;5037539;28;45386;-68
2023/12/09 07:53:07;;;;;;;;;2.00;2.00;;;;;8.78;94.94;100206.72;5036646;28;45245;-69
2023/12/09 07:55:32;;;;;;;;;4.50;3.00;;;;;8.77;95.25;100202.34;5033150;28;45788;-70
2023/12/09 07:57:58;;;;;;;;;4.50;3.25;;;;;8.26;95.54;100116.16;5021789;28;45344;-69
2023/12/09 08:00:27;;;;;;;;;7.00;5.00;;;;;8.17;95.38;100078.75;5028041;28;45439;-69
2023/12/09 08:02:54;;;;;;;;;3.50;3.50;;;;;8.72;95.68;100153.63;5019175;28;45473;-68
2023/12/09 08:05:21;;;;;;;;;7.00;3.00;;;;;8.58;95.72;100125.75;5035274;28;46472;-70
2023/12/09 08:07:47;;;;;;;;;9.00;4.25;;;;;8.81;95.98;100151.88;5031636;28;45469;-67
2023/12/09 08:10:13;;;;;;;;;5.00;3.25;;;;;8.36;96.55;100069.19;5030476;28;45342;-68
2023/12/09 08:12:38;;;;;;;;;5.50;3.00;;;;;8.73;96.86;100132.72;5029662;28;45501;-68
2023/12/09 08:15:05;;;;;;;;;4.75;2.50;;;;;8.62;96.87;100092.72;5030583;28;46251;-68
2023/12/09 08:17:30;;;;;;;;;2.00;2.00;;;;;8.73;96.77;100082.25;5027887;28;45730;-70
2023/12/09 08:19:56;;;;;;;;;2.75;2.75;;;;;8.41;96.60;100026.59;5031662;28;45335;-68
2023/12/09 08:22:22;;;;;;;;;4.00;3.50;;;;;8.63;97.23;100057.88;5028306;28;45519;-70
2023/12/09 08:24:48;;;;;;;;;5.75;3.00;;;;;8.69;97.23;100061.38;5031690;28;46523;-68
2023/12/09 08:27:13;;;;;;;;;4.00;3.00;;;;;8.65;97.54;100053.53;5030073;28;45467;-69
2023/12/09 08:29:39;;;;;;;;;3.75;2.50;;;;;8.56;98.29;100030.06;5029849;28;45477;-69
2023/12/09 08:32:04;;;;;;;;;4.50;4.50;;;;;8.58;97.86;100015.25;5032334;28;45533;-68
2023/12/09 08:34:30;;;;;;;;;2.50;0.00;;;;;8.52;98.23;99986.56;5028394;28;45516;-68
2023/12/09 08:36:56;;;;;;;;;3.25;3.00;;;;;8.43;97.92;99943.97;5033252;28;45458;-70
2023/12/09 08:39:23;;;;;;;;;4.75;2.50;;;;;8.45;97.50;99938.75;5029710;28;45391;-69
2023/12/09 08:41:49;;;;;;;;;3.50;3.00;;;;;8.76;97.29;99998.72;5033022;28;45615;-69
2023/12/09 08:44:15;;;;;;;;;3.50;2.00;;;;;8.64;97.66;99965.69;5031265;28;45341;-68
2023/12/09 08:46:41;;;;;;;;;12.00;3.00;;;;;8.39;97.15;99913.47;5029728;28;46052;-69
2023/12/09 08:49:06;;;;;;;;;1.75;1.75;;;;;8.77;97.56;99972.59;5025039;28;45565;-67
2023/12/09 08:51:46;;;;;;;;;4.25;3.00;;;;;8.78;97.54;99973.44;5024955;28;45521;-69
2023/12/09 08:54:13;;;;;;;;;6.75;3.25;;;;;8.36;97.30;99879.56;5027392;28;45458;-69
2023/12/09 08:56:38;;;;;;;;;4.75;2.25;;;;;8.35;97.32;99863.91;5028532;28;45548;-69
2023/12/09 08:59:07;;;;;;;;;2.25;2.25;;;;;8.58;97.63;99889.97;5044129;28;45463;-68
2023/12/09 09:01:34;;;;;;;;;6.25;2.75;;;;;8.53;97.41;99870.84;5028658;28;45531;-69
2023/12/09 09:04:01;;;;;;;;;2.75;2.75;;;;;8.81;97.87;99895.97;5031530;28;46244;-69
2023/12/09 09:06:27;;;;;;;;;4.00;1.50;;;;;8.41;97.80;99811.75;5031409;28;45530;-70
2023/12/09 09:08:55;;;;;;;;;3.00;3.00;;;;;8.80;97.98;99877.69;5037223;28;45466;-70
2023/12/09 09:11:21;;;;;;;;;2.75;1.50;;;;;7.80;98.73;99719.75;5038961;28;45400;-69
2023/12/09 09:13:47;;;;;;;;;6.00;1.25;;;;;8.81;98.33;99862.03;5038751;28;45311;-69
2023/12/09 09:16:16;;;;;;;;;2.00;2.00;;;;;8.73;97.65;99806.38;5040239;28;45417;-70
2023/12/09 09:18:42;;;;;;;;;2.00;2.00;;;;;8.88;97.62;99842.84;5040441;28;45346;-68
2023/12/09 09:21:09;;;;;;;;;2.75;1.25;;;;;8.76;98.42;99835.09;5040245;28;45483;-69
2023/12/09 09:23:35;;;;;;;;;1.25;1.25;;;;;8.95;97.86;99866.34;5038426;28;45531;-69
2023/12/09 09:26:01;;;;;;;;;1.75;1.75;;;;;8.46;97.52;99763.00;5039121;28;45553;-69
2023/12/09 09:28:26;;;;;;;;;1.00;1.00;;;;;9.03;97.27;99836.66;5029724;28;45249;-69
2023/12/09 09:30:52;;;;;;;;;2.00;2.00;;;;;9.06;97.04;99865.41;5037908;28;45423;-69
2023/12/09 09:33:18;;;;;;;;;3.00;1.25;;;;;8.75;97.24;99801.16;5038879;28;45473;-69
2023/12/09 09:35:45;;;;;;;;;1.25;1.25;;;;;9.08;97.20;99837.50;5036895;28;45502;-69
2023/12/09 09:38:18;;;;;;;;;3.00;1.25;;;;;9.08;97.91;99855.78;5031715;28;45681;-69
2023/12/09 09:40:44;;;;;;;;;2.00;1.00;;;;;8.48;97.32;99737.78;5019005;28;45812;-70
2023/12/09 09:43:22;;;;;;;;;1.50;1.00;;;;;8.90;97.20;99820.22;5019758;28;46209;-69
2023/12/09 09:45:48;;;;;;;;;1.50;1.00;;;;;8.96;97.51;99816.69;5020018;28;45248;-69
2023/12/09 09:48:23;;;;;;;;;2.00;2.00;;;;;9.15;97.23;99843.56;5031099;28;45309;-69
2023/12/09 09:50:52;;;;;;;;;1.00;1.00;;;;;9.01;97.59;99803.59;5032252;28;45388;-68
2023/12/09 09:53:29;;;;;;;;;1.25;1.25;;;;;9.10;96.89;99820.06;5029808;28;46235;-70
2023/12/09 09:55:56;;;;;;;;;2.00;2.00;;;;;8.97;97.69;99801.88;5025239;28;45421;-70
2023/12/09 09:58:22;;;;;;;;;1.00;1.00;;;;;9.16;97.77;99800.00;5030198;28;45339;-69
2023/12/09 10:00:48;;;;;;;;;0.00;0.00;;;;;9.24;97.73;99780.78;5032056;28;45367;-68
2023/12/09 10:03:14;;;;;;;;;2.00;1.00;;;;;9.22;98.05;99768.63;5023618;28;46781;-69
2023/12/09 10:05:39;;;;;;;;;2.75;1.00;;;;;9.31;97.76;99768.56;5026215;28;45515;-70
2023/12/09 10:08:05;;;;;;;;;1.25;1.00;;;;;9.26;97.42;99762.50;5038815;28;45506;-70
2023/12/09 10:10:33;;;;;;;;;4.25;1.00;;;;;9.21;97.23;99739.03;5038323;28;45331;-69
2023/12/09 10:13:10;;;;;;;;;3.50;1.00;;;;;9.33;96.47;99767.66;5038110;28;45481;-69
2023/12/09 10:15:37;;;;;;;;;2.25;2.00;;;;;9.03;97.31;99707.81;5038126;28;45604;-70
2023/12/09 10:18:03;;;;;;;;;1.00;1.00;;;;;9.38;97.40;99761.53;5039380;28;45342;-68
2023/12/09 10:20:36;;;;;;;;;4.25;1.00;;;;;9.30;96.86;99738.94;5039046;28;45264;-69
2023/12/09 10:23:02;;;;;;;;;1.67;0.33;;;;;9.06;97.11;99694.72;5039121;28;45533;-69
2023/12/09 10:25:28;;;;;;;;;1.00;1.00;;;;;9.08;96.81;99682.53;5037703;28;45357;-69
2023/12/09 10:27:56;;;;;;;;;2.00;1.00;;;;;9.26;97.53;99699.78;5032309;28;45437;-69
2023/12/09 10:30:22;;;;;;;;;1.25;1.25;;;;;9.49;97.09;99723.06;5031892;28;45283;-70
2023/12/09 10:32:48;;;;;;;;;1.00;1.00;;;;;9.05;96.52;99633.78;5036355;28;45658;-69
2023/12/09 10:35:16;;;;;;;;;0.00;0.00;;;;;9.54;97.18;99716.94;5021765;28;45504;-70
2023/12/09 10:37:43;;;;;;;;;1.00;1.00;;;;;9.48;97.16;99698.69;5026110;28;45339;-70
2023/12/09 10:40:09;;;;;;;;;0.00;0.00;;;;;9.55;97.26;99691.66;5024954;28;45519;-69
2023/12/09 10:42:38;;;;;;;;;1.50;1.00;;;;;9.58;97.33;99677.69;5028299;28;45417;-69
2023/12/09 10:45:11;;;;;;;;;0.75;0.75;;;;;9.61;96.87;99685.47;5020947;28;45335;-69
2023/12/09 10:47:37;;;;;;;;;0.33;0.33;;;;;9.65;97.21;99677.59;5020964;28;45483;-68
2023/12/09 10:50:07;;;;;;;;;1.50;1.50;;;;;9.62;97.84;99677.63;5020587;28;45435;-70
2023/12/09 10:52:36;;;;;;;;;0.00;0.00;;;;;9.62;97.66;99671.53;5022537;28;45580;-68
2023/12/09 10:55:01;;;;;;;;;0.33;0.33;;;;;9.66;97.88;99663.66;5024402;28;45375;-68
2023/12/09 10:57:28;;;;;;;;;1.00;1.00;;;;;9.65;98.13;99653.19;5027769;28;45314;-69
2023/12/09 10:59:55;;;;;;;;;0.00;0.00;;;;;9.49;98.52;99623.75;5024003;28;45506;-69
2023/12/09 11:02:29;;;;;;;;;2.33;1.00;;;;;9.68;98.87;99651.44;5024033;28;45418;-69
2023/12/09 11:04:56;;;;;;;;;0.67;0.67;;;;;9.14;99.53;99551.88;5027211;28;45737;-69
2023/12/09 11:07:21;;;;;;;;;0.33;0.33;;;;;9.62;99.69;99607.03;5029658;28;45414;-69
2023/12/09 11:09:47;;;;;;;;;3.33;2.00;;;;;9.58;99.19;99612.31;5028264;28;45369;-69
2023/12/09 11:12:30;;;;;;;;;0.67;0.67;;;;;9.85;99.40;99621.59;5034246;28;45984;-69
2023/12/09 11:15:35;;;;;;;;;0.00;0.00;;;;;9.66;99.31;99581.75;5025575;28;45505;-68
2023/12/09 11:18:10;;;;;;;;;1.00;1.00;;;;;9.99;98.97;99598.75;5018636;28;45491;-69
2023/12/09 11:20:39;;;;;;;;;1.00;1.00;;;;;9.85;99.42;99558.84;5027762;28;45542;-67
2023/12/09 11:23:08;;;;;;;;;0.00;0.00;;;;;9.79;99.43;99540.59;5029235;28;45391;-68
2023/12/09 11:25:33;;;;;;;;;1.00;0.00;;;;;9.92;100.00;99563.94;5034567;28;45549;-69
2023/12/09 11:27:59;;;;;;;;;0.67;0.67;;;;;10.12;99.58;99599.41;5022328;28;45446;-67
2023/12/09 11:30:46;;;;;;;;;1.00;1.00;;;;;9.71;99.19;99493.66;5030996;28;45553;-70
2023/12/09 11:33:12;;;;;;;;;0.00;0.00;;;;;9.83;99.04;99500.44;5028261;28;46254;-68
2023/12/09 11:35:38;;;;;;;;;0.67;0.67;;;;;10.18;99.11;99532.16;5030058;28;45501;-69